首页
METAR-TAF:

METAR-TAF

机场 :

乌兰巴托, 蒙古国

成吉思汗國際機場

纬度: 47-55N, 经度: 106-52E, 海拔: 1306米

当前天气观测

该预报发布于22分钟前的22:00 UTC
风速2节,风向多变
温度 -3°C
湿度 74%
气压 1020 hPa
能见度10公里或以上
散云层高于10000英尺

METAR: ZMUB 252200Z VRB01MPS 9999 SCT100 M03/M07 Q1020 NOSIG RMK QFE657.4 70 MOP

时间: 07:22 (22:22 UTC)

预报

该预报发布于5小时和42分钟前的16:40 UTC
预报有效从25日的 18点(UTC)到 26日的 24点(UTC)
风速4节,风向多变
能见度10公里或以上
1500米以下无云,无积雨云
成为
从 26日的 04点(UTC)到 26日的 06点(UTC)
风速12节,风向南转西南
少量云层高于3000英尺, 积雨云.
散云层高于3300英尺
成为
从 26日的 09点(UTC)到 26日的 11点(UTC)
风速4节,风向多变

TAF: ZMUB 251640Z 2518/2624 VRB02MPS CAVOK TNM01/2522Z TX22/2607Z BECMG 2604/2606 21006MPS FEW030CB SCT033 BECMG 2609/2611 VRB02MPS

超过4000个机场的气象观测和天气预报(METAR&TAF报告)。

可查询的气象台以黄色和红色小点在地图上表示。

将鼠标移到小点上方,可查看气象台名称。

然后点击查看天气观测和预报。

如需切换地图:点击带黑十字的绿色按钮放大地图;点击带横线的绿色按钮缩小地图;或者点击绿色箭头查看邻近地区的地图。


METAR-TAF: